Dallas, TX

3:08 PM CDT on April 29, 2017 (GMT -0500)
Uptown | | Change Station

Elev 452 ft 32.79 °N, 96.81 °W | Updated 9 minutes ago

Mostly Cloudy
Mostly Cloudy
87.6 °F
Feels Like 94 °F
N
1.9
Wind Variable Wind from SE

Today
High -- | Low -- °F
--% Chance of Precip.
Yesterday
High -- | Low -- °F
Precip. -- in
Pressure 29.51 in
Visibility 9.0 miles
Clouds Scattered Clouds 4400 ft
Mostly Cloudy 8000 ft
Mostly Cloudy 30000 ft
Heat Index 94 °F
Dew Point 70 °F
Humidity 59%
Rainfall Not available.
Snow Depth Not available.
6:41 AM 8:07 PM
Waxing Crescent, 16% visible
METAR KDAL 291953Z 21016G25KT 9SM SCT044TCU BKN080 BKN300 32/21 A2953 RMK AO2 PK WND 19026/1909 SLP991 CB DSNT NE MOV NE TCU N-E-S AND DSNT SW-NW T03170206
Pressure 29.51 in
Visibility 9.0 miles
Clouds Scattered Clouds 4400 ft
Mostly Cloudy 8000 ft
Mostly Cloudy 30000 ft
Heat Index 94 °F
Dew Point 70 °F
Humidity 59%
Rainfall Not available.
Snow Depth Not available.
6:41 AM 8:07 PM
Waxing Crescent, 16% visible
METAR KDAL 291953Z 21016G25KT 9SM SCT044TCU BKN080 BKN300 32/21 A2953 RMK AO2 PK WND 19026/1909 SLP991 CB DSNT NE MOV NE TCU N-E-S AND DSNT SW-NW T03170206

Get Severe Weather Alerts

Thanks for signing up!

Be on the lookout for a verification email in your inbox.

You'll start receiving the daily forecast at 8 AM.

×

10-Day Weather Forecast

Almanac

Astronomy

Apr. 29, 2017 Rise Set
Actual Time
Civil Twilight
Nautical Twilight
Astronomical Twilight
Moon
Length of Visible Light
Length of Day
Tomorrow will be .
, % of the Moon is Illuminated

Today's Extremes

State Highs State Lows

Community

WunderPhotos

WunderBlog® & News

Nearby

Air Quality

  Air Quality AQ Index Pollutant
Not available.

Snow Depth

Station Depth Elevation

Earthquake Activity

City Distance Mag. Time & Date
Minimum magnitude displayed is 2.5.

Coastal Water Temperatures

Place Temperature

Stations

Nearby Weather Stations

Station Location Temp. Windchill Dew Point Humidity Wind Precip. Elev Updated Type
                   

Watches & Warnings

There are currently no watches in effect.